Weather at Lauterbach Airport

Public forecast

Using degrees Celsius for public forecast. Weather courtesy of forecast.io.

Closest aviation weather report (METAR) to Lauterbach Airport

Report is more than 6 hours old.

Closest report is Fritzlar Army Airfield, 26.3 nm (48.7 km) N. Retrieved 2022/09/17 18:20 UTC (8 days ago):

ETHF 171820Z AUTO 28006KT 9999 // ////// 10/06 Q1012 ///

Closest aviation forecast (TAF) to Lauterbach Airport

Forecast is more than 12 hours old.

Closest forecast is Fritzlar Army Airfield, 26.3 nm (48.7 km) N. Retrieved 2022/02/17 06:31 UTC (7 months ago):

TAF ETHF 170520Z 1706/1724 27020G30KT 9999 NSW FEW025 BKN060 TEMPO 1706/1712 28025G50KT 3000 SHRA SCT020CB BKN030 TEMPO 1712/1715 28025G40KT 6000 -SHRA SCT020TCU BKN030